Time;durP1;ratioP1;P1;durP2;ratioP2;P2;SDS_P1;SDS_P2;PMS_P1;PMS_P2;Temp;Humidity;BMP_temperature;BMP_pressure;BME280_temperature;BME280_humidity;BME280_pressure;Samples;Min_cycle;Max_cycle;Signal;HPM_P1;HPM_P2
2022/07/16 00:02:11;;;;;;;8.95;1.60;;;16.10;88.70;;;;;;5129285;27;45191;-75
2022/07/16 00:04:38;;;;;;;6.43;1.73;;;16.30;88.30;;;;;;5144485;27;45301;-75
2022/07/16 00:07:05;;;;;;;3.80;1.50;;;16.40;87.40;;;;;;5142756;27;45268;-74
2022/07/16 00:09:32;;;;;;;3.22;1.30;;;16.60;88.50;;;;;;5139163;27;45229;-75
2022/07/16 00:11:59;;;;;;;3.17;1.42;;;16.60;86.90;;;;;;5146485;27;45500;-74
2022/07/16 00:14:25;;;;;;;3.00;1.75;;;16.60;87.60;;;;;;5128005;27;46499;-75
2022/07/16 00:16:52;;;;;;;3.33;1.67;;;16.40;88.90;;;;;;5142523;27;45203;-74
2022/07/16 00:19:21;;;;;;;3.25;1.10;;;16.30;88.50;;;;;;5147465;27;45337;-75
2022/07/16 00:21:50;;;;;;;3.33;1.60;;;16.20;88.90;;;;;;5146397;27;45267;-75
2022/07/16 00:24:18;;;;;;;6.25;1.65;;;16.00;90.10;;;;;;5137459;27;46484;-75
2022/07/16 00:26:45;;;;;;;10.35;1.58;;;15.90;90.50;;;;;;5147608;27;45291;-76
2022/07/16 00:29:12;;;;;;;4.45;1.40;;;16.00;90.40;;;;;;5127948;27;45337;-75
2022/07/16 00:31:39;;;;;;;4.43;1.70;;;16.00;90.40;;;;;;5128980;27;45258;-75
2022/07/16 00:34:08;;;;;;;6.82;1.85;;;16.00;90.40;;;;;;5139162;27;45321;-75
2022/07/16 00:36:37;;;;;;;9.35;1.83;;;16.10;90.40;;;;;;5132754;27;45240;-75
2022/07/16 00:39:04;;;;;;;5.10;1.50;;;16.10;90.50;;;;;;5131153;27;45377;-75
2022/07/16 00:41:32;;;;;;;8.77;1.80;;;15.90;90.50;;;;;;5147877;27;45532;-75
2022/07/16 00:44:01;;;;;;;3.25;1.63;;;15.90;90.80;;;;;;5143065;27;45579;-75
2022/07/16 00:46:29;;;;;;;8.38;1.70;;;15.90;90.70;;;;;;5136388;27;45285;-75
2022/07/16 00:48:57;;;;;;;5.32;1.70;;;16.00;90.80;;;;;;5146033;27;45312;-75
2022/07/16 00:51:24;;;;;;;14.43;2.25;;;16.00;90.60;;;;;;5140000;27;45311;-75
2022/07/16 00:53:54;;;;;;;11.32;1.88;;;16.00;90.60;;;;;;5142472;27;47266;-75
2022/07/16 00:56:21;;;;;;;7.60;2.45;;;15.70;91.40;;;;;;5136163;27;45385;-75
2022/07/16 00:58:49;;;;;;;5.25;1.67;;;15.30;92.40;;;;;;5138944;27;45333;-75
2022/07/16 01:01:16;;;;;;;9.80;2.00;;;15.00;93.40;;;;;;5147831;27;45314;-75
2022/07/16 01:03:45;;;;;;;6.93;1.70;;;15.00;93.80;;;;;;5146691;27;47991;-75
2022/07/16 01:06:13;;;;;;;8.05;1.60;;;15.10;93.30;;;;;;5132528;27;45412;-76
2022/07/16 01:08:41;;;;;;;12.10;1.90;;;15.20;93.20;;;;;;5148257;27;45255;-76
2022/07/16 01:11:12;;;;;;;9.32;1.95;;;16.30;90.70;;;;;;5148054;27;45216;-76
2022/07/16 01:13:41;;;;;;;14.13;1.98;;;16.90;87.30;;;;;;5147653;27;46631;-76
2022/07/16 01:16:10;;;;;;;6.70;1.60;;;17.20;84.80;;;;;;5127004;27;45949;-76
2022/07/16 01:18:37;;;;;;;13.63;1.83;;;17.50;83.60;;;;;;5127378;27;45228;-76
2022/07/16 01:21:05;;;;;;;9.18;1.92;;;17.60;82.40;;;;;;5130453;27;45394;-76
2022/07/16 01:23:33;;;;;;;9.82;1.67;;;17.70;83.10;;;;;;5147956;27;46349;-76
2022/07/16 01:26:10;;;;;;;8.43;1.48;;;17.80;82.40;;;;;;5148074;27;45153;-76
2022/07/16 01:28:37;;;;;;;11.05;2.00;;;18.40;79.50;;;;;;5148308;27;45337;-76
2022/07/16 01:31:04;;;;;;;8.73;2.03;;;18.70;78.00;;;;;;5147747;27;45441;-76
2022/07/16 01:33:33;;;;;;;17.08;2.60;;;19.00;77.30;;;;;;5148250;27;47042;-76
2022/07/16 01:36:02;;;;;;;10.73;1.48;;;19.10;77.50;;;;;;5148024;27;45209;-76
2022/07/16 01:38:29;;;;;;;10.40;2.15;;;19.10;76.30;;;;;;5147615;27;45231;-76
2022/07/16 01:40:57;;;;;;;19.30;2.42;;;19.10;75.90;;;;;;5148429;27;45528;-76
2022/07/16 01:43:26;;;;;;;13.25;1.90;;;19.10;76.00;;;;;;5147969;27;46564;-76
2022/07/16 01:45:53;;;;;;;6.18;1.63;;;19.10;76.10;;;;;;5147963;27;45196;-77
2022/07/16 01:48:21;;;;;;;16.35;1.92;;;19.10;75.90;;;;;;5148161;27;45216;-77
2022/07/16 01:50:49;;;;;;;11.73;1.90;;;19.10;76.90;;;;;;5148537;27;45179;-77
2022/07/16 01:53:17;;;;;;;18.30;1.70;;;19.10;76.30;;;;;;5147825;27;46253;-76
2022/07/16 01:55:44;;;;;;;11.75;1.92;;;19.10;76.00;;;;;;5147830;27;46249;-77
2022/07/16 01:58:14;;;;;;;15.35;1.80;;;19.20;75.50;;;;;;5148100;27;45171;-76
2022/07/16 02:00:43;;;;;;;12.35;2.00;;;19.10;75.50;;;;;;5147916;27;45417;-76
2022/07/16 02:03:31;;;;;;;12.45;1.90;;;19.20;75.70;;;;;;5148109;27;45324;-76
2022/07/16 02:05:58;;;;;;;11.35;1.83;;;19.30;75.60;;;;;;5147960;27;45230;-76
2022/07/16 02:08:24;;;;;;;14.70;1.70;;;19.20;75.70;;;;;;5148263;27;45073;-77
2022/07/16 02:10:51;;;;;;;11.55;1.80;;;19.20;75.60;;;;;;5147712;27;45268;-77
2022/07/16 02:13:52;;;;;;;12.05;1.75;;;19.30;76.30;;;;;;5147691;27;45268;-76
2022/07/16 02:16:19;;;;;;;5.57;1.80;;;19.30;75.40;;;;;;5147922;27;45192;-76
2022/07/16 02:18:45;;;;;;;10.07;1.80;;;19.30;75.30;;;;;;5148024;27;45280;-77
2022/07/16 02:21:12;;;;;;;9.75;2.42;;;19.30;75.30;;;;;;5147948;27;45391;-76
2022/07/16 02:23:39;;;;;;;11.52;1.75;;;19.30;75.20;;;;;;5147357;27;48097;-77
2022/07/16 02:26:06;;;;;;;11.00;2.28;;;19.30;74.80;;;;;;5147633;27;45212;-76
2022/07/16 02:28:33;;;;;;;11.77;1.80;;;19.30;75.00;;;;;;5147818;27;45127;-76
2022/07/16 02:31:02;;;;;;;6.68;1.60;;;19.30;75.60;;;;;;5147341;27;45516;-77
2022/07/16 02:33:28;;;;;;;12.10;1.92;;;19.40;75.00;;;;;;5147772;27;45418;-77
2022/07/16 02:36:12;;;;;;;5.82;1.88;;;19.30;75.10;;;;;;5147881;27;45313;-76
2022/07/16 02:38:39;;;;;;;6.68;1.80;;;19.30;74.80;;;;;;5146918;27;45442;-77
2022/07/16 02:41:06;;;;;;;8.50;1.50;;;19.30;74.50;;;;;;5147636;27;45309;-77
2022/07/16 02:43:33;;;;;;;13.75;1.80;;;19.40;74.30;;;;;;5147006;27;46311;-76
2022/07/16 02:46:01;;;;;;;6.18;1.55;;;19.30;74.20;;;;;;5147231;27;45304;-76
2022/07/16 02:48:28;;;;;;;11.35;1.80;;;19.40;74.10;;;;;;5151403;27;45255;-77
2022/07/16 02:50:54;;;;;;;7.80;2.00;;;19.40;73.70;;;;;;5151102;27;45306;-77
2022/07/16 02:53:21;;;;;;;7.50;1.80;;;19.50;73.80;;;;;;5150684;27;46615;-76
2022/07/16 02:55:48;;;;;;;5.15;1.50;;;19.50;74.80;;;;;;5150558;27;45304;-77
2022/07/16 02:58:15;;;;;;;5.68;1.70;;;19.50;73.40;;;;;;5150817;27;45197;-76
2022/07/16 03:00:42;;;;;;;5.97;1.73;;;19.50;73.30;;;;;;5150685;27;45551;-76
2022/07/16 03:03:10;;;;;;;6.88;1.60;;;19.50;73.50;;;;;;5150461;27;45409;-77
2022/07/16 03:05:37;;;;;;;8.02;1.65;;;19.50;73.60;;;;;;5150397;27;45294;-76
2022/07/16 03:08:05;;;;;;;5.97;1.60;;;19.50;73.20;;;;;;5150980;27;45405;-77
2022/07/16 03:10:31;;;;;;;8.00;2.00;;;19.50;73.40;;;;;;5150792;27;45426;-77
2022/07/16 03:13:07;;;;;;;11.52;2.03;;;19.50;73.30;;;;;;5150497;27;45137;-76
2022/07/16 03:15:34;;;;;;;5.65;1.50;;;19.30;73.90;;;;;;5150863;27;45279;-76
2022/07/16 03:18:01;;;;;;;6.55;1.60;;;19.20;74.00;;;;;;5150705;27;45198;-77
2022/07/16 03:20:29;;;;;;;6.63;1.50;;;19.20;74.40;;;;;;5150680;27;45274;-76
2022/07/16 03:23:17;;;;;;;6.75;1.50;;;19.10;74.20;;;;;;5150377;27;46656;-77
2022/07/16 03:25:44;;;;;;;7.60;1.40;;;19.20;74.40;;;;;;5150352;27;45305;-77
2022/07/16 03:28:11;;;;;;;7.47;1.70;;;19.20;74.70;;;;;;5150528;27;45153;-77
2022/07/16 03:30:38;;;;;;;3.95;1.67;;;19.20;76.30;;;;;;5150634;27;45207;-77
2022/07/16 03:33:04;;;;;;;8.75;1.80;;;19.20;75.60;;;;;;5149973;27;45304;-77
2022/07/16 03:35:33;;;;;;;9.48;1.90;;;19.30;75.70;;;;;;5149876;27;45195;-76
2022/07/16 03:40:45;;;;;;;9.77;1.67;;;19.20;76.60;;;;;;5154757;27;45193;-75
2022/07/16 03:46:34;;;;;;;7.35;1.50;;;19.20;75.20;;;;;;5146868;27;45437;-77
2022/07/16 03:49:02;;;;;;;10.25;2.45;;;19.20;75.10;;;;;;5149762;27;45304;-77
2022/07/16 03:51:31;;;;;;;4.38;1.58;;;19.10;75.20;;;;;;5150108;27;45315;-76
2022/07/16 03:53:58;;;;;;;6.70;1.73;;;19.20;75.50;;;;;;5149620;27;46315;-77
2022/07/16 03:56:25;;;;;;;7.22;2.33;;;19.10;75.70;;;;;;5149899;27;45180;-77
2022/07/16 03:58:52;;;;;;;7.88;1.63;;;19.20;74.90;;;;;;5149942;27;45190;-77
2022/07/16 04:01:19;;;;;;;5.35;1.33;;;19.20;75.00;;;;;;5150115;27;45193;-77
2022/07/16 04:03:45;;;;;;;4.70;1.38;;;19.10;74.70;;;;;;5149754;27;46135;-77
2022/07/16 04:06:12;;;;;;;9.43;1.77;;;19.10;75.90;;;;;;5149772;27;45215;-77
2022/07/16 04:08:41;;;;;;;4.03;1.83;;;19.10;75.40;;;;;;5149599;27;45175;-76
2022/07/16 04:11:08;;;;;;;7.28;1.60;;;19.10;75.00;;;;;;5149728;27;45472;-77
2022/07/16 04:13:37;;;;;;;4.38;1.70;;;19.10;74.90;;;;;;5149379;27;47482;-76
2022/07/16 04:16:04;;;;;;;5.32;1.85;;;19.10;74.60;;;;;;5149349;27;45208;-76
2022/07/16 04:18:31;;;;;;;4.57;1.65;;;19.00;74.70;;;;;;5149845;27;45195;-76
2022/07/16 04:20:58;;;;;;;3.70;1.70;;;19.00;74.50;;;;;;5149746;27;45613;-76
2022/07/16 04:23:24;;;;;;;4.30;1.80;;;19.00;74.50;;;;;;5149281;27;46997;-77
2022/07/16 04:25:52;;;;;;;6.50;1.50;;;19.10;74.60;;;;;;5149198;27;45282;-77
2022/07/16 04:28:19;;;;;;;7.43;1.85;;;19.10;74.40;;;;;;5149254;27;45202;-77
2022/07/16 04:30:46;;;;;;;11.18;1.88;;;19.10;74.30;;;;;;5152670;27;45252;-77
2022/07/16 04:33:13;;;;;;;9.95;1.75;;;19.20;75.40;;;;;;5150429;27;47779;-77
2022/07/16 04:35:39;;;;;;;4.15;1.70;;;19.20;74.70;;;;;;5149015;27;45118;-77
2022/07/16 04:38:06;;;;;;;4.65;2.00;;;19.30;75.30;;;;;;5148747;27;45172;-76
2022/07/16 04:40:33;;;;;;;4.25;1.70;;;19.20;75.70;;;;;;5149378;27;45220;-77
2022/07/16 04:43:01;;;;;;;6.15;2.10;;;19.10;76.10;;;;;;5148887;27;48292;-76
2022/07/16 04:45:28;;;;;;;7.30;1.58;;;19.20;75.00;;;;;;5149075;27;45206;-76
2022/07/16 04:47:55;;;;;;;5.38;1.90;;;19.20;74.70;;;;;;5149198;27;45242;-77
2022/07/16 04:50:21;;;;;;;3.97;1.75;;;19.20;74.70;;;;;;5149115;27;45240;-76
2022/07/16 04:52:48;;;;;;;4.63;1.33;;;19.20;74.70;;;;;;5148763;27;46502;-77
2022/07/16 04:55:15;;;;;;;5.13;1.55;;;19.20;74.80;;;;;;5148649;27;45169;-77
2022/07/16 04:57:42;;;;;;;5.95;1.73;;;19.20;74.60;;;;;;5148790;27;45354;-77
2022/07/16 05:00:11;;;;;;;5.55;1.90;;;19.20;74.20;;;;;;5148999;27;45595;-77
2022/07/16 05:05:22;;;;;;;5.22;1.98;;;19.20;74.60;;;;;;5145618;27;45122;-76
2022/07/16 05:07:49;;;;;;;8.05;1.75;;;19.20;74.30;;;;;;5148853;27;45163;-76
2022/07/16 05:10:17;;;;;;;5.75;1.67;;;19.20;74.40;;;;;;5148552;27;45160;-77
2022/07/16 05:12:44;;;;;;;8.15;1.80;;;19.20;74.40;;;;;;5148233;27;47787;-76
2022/07/16 05:15:12;;;;;;;5.95;1.50;;;19.20;74.20;;;;;;5148714;27;45168;-77
2022/07/16 05:17:39;;;;;;;5.72;1.75;;;19.30;74.30;;;;;;5148659;27;45179;-76
2022/07/16 05:20:07;;;;;;;6.18;1.73;;;19.30;74.20;;;;;;5148762;27;45384;-77
2022/07/16 05:22:34;;;;;;;5.05;1.83;;;19.30;74.20;;;;;;5150936;27;46469;-76
2022/07/16 05:25:00;;;;;;;9.90;1.70;;;19.40;73.80;;;;;;5148455;27;45288;-76
2022/07/16 05:27:27;;;;;;;7.55;1.65;;;19.40;74.10;;;;;;5148531;27;45116;-77
2022/07/16 05:29:54;;;;;;;7.05;1.80;;;19.40;74.20;;;;;;5148685;27;45182;-77
2022/07/16 05:32:22;;;;;;;3.42;2.00;;;19.40;74.10;;;;;;5148235;27;47509;-77
2022/07/16 05:34:49;;;;;;;4.47;1.60;;;19.30;73.30;;;;;;5147677;27;45274;-76
2022/07/16 05:37:16;;;;;;;3.08;1.60;;;19.30;73.40;;;;;;5148218;27;45409;-76
2022/07/16 05:39:43;;;;;;;5.18;1.63;;;19.40;72.80;;;;;;5148507;27;45190;-76
2022/07/16 05:42:10;;;;;;;3.47;1.60;;;19.40;72.90;;;;;;5148122;27;46658;-76
2022/07/16 05:44:36;;;;;;;2.60;1.40;;;19.50;72.20;;;;;;5148066;27;45343;-77
2022/07/16 05:47:03;;;;;;;4.03;1.40;;;19.50;72.30;;;;;;5148264;27;45461;-76
2022/07/16 05:49:31;;;;;;;2.22;1.30;;;19.50;72.10;;;;;;5148393;27;45137;-76
2022/07/16 05:51:58;;;;;;;6.18;1.50;;;19.60;71.90;;;;;;5147684;27;45439;-76
2022/07/16 05:54:25;;;;;;;5.05;1.55;;;19.60;71.70;;;;;;5148051;27;45346;-77
2022/07/16 05:56:52;;;;;;;4.40;1.50;;;19.50;72.20;;;;;;5148074;27;45168;-77
2022/07/16 05:59:19;;;;;;;3.65;1.35;;;19.50;72.40;;;;;;5148250;27;45210;-76
2022/07/16 06:01:45;;;;;;;4.93;1.75;;;19.50;72.50;;;;;;5147827;27;46874;-76
2022/07/16 06:04:12;;;;;;;8.32;1.95;;;19.40;73.10;;;;;;5147804;27;45233;-76
2022/07/16 06:06:40;;;;;;;4.03;1.50;;;19.40;73.30;;;;;;5147774;27;45320;-76
2022/07/16 06:09:07;;;;;;;4.53;1.50;;;19.30;73.90;;;;;;5147896;27;45418;-76
2022/07/16 06:11:34;;;;;;;11.85;2.05;;;19.40;74.00;;;;;;5147708;27;46265;-76
2022/07/16 06:14:12;;;;;;;9.57;1.77;;;19.40;74.20;;;;;;5151027;27;45220;-76
2022/07/16 06:16:40;;;;;;;4.55;1.80;;;19.40;74.20;;;;;;5148665;27;45112;-76
2022/07/16 06:19:07;;;;;;;6.82;1.48;;;19.50;73.80;;;;;;5147818;27;45630;-76
2022/07/16 06:21:33;;;;;;;5.18;1.80;;;19.60;73.90;;;;;;5147633;27;45778;-77
2022/07/16 06:24:02;;;;;;;8.25;1.88;;;19.60;74.20;;;;;;5150004;27;45113;-76
2022/07/16 06:26:28;;;;;;;5.00;2.00;;;19.60;74.20;;;;;;5151115;27;45165;-77
2022/07/16 06:28:55;;;;;;;4.80;1.90;;;19.60;74.30;;;;;;5151127;27;45574;-76
2022/07/16 06:31:22;;;;;;;3.88;1.73;;;19.70;74.60;;;;;;5150933;27;45306;-76
2022/07/16 06:33:49;;;;;;;5.43;2.00;;;19.60;74.70;;;;;;5151372;27;45404;-77
2022/07/16 06:36:16;;;;;;;6.55;1.85;;;19.60;74.90;;;;;;5151204;27;45129;-76
2022/07/16 06:38:43;;;;;;;5.63;2.03;;;19.60;75.40;;;;;;5150826;27;45268;-76
2022/07/16 06:41:11;;;;;;;3.92;1.77;;;19.70;75.40;;;;;;5151050;27;48215;-77
2022/07/16 06:44:14;;;;;;;3.35;1.83;;;19.80;75.30;;;;;;5150973;27;45383;-77
2022/07/16 06:46:40;;;;;;;3.70;1.90;;;19.80;75.60;;;;;;5130258;27;45396;-77
2022/07/16 06:49:07;;;;;;;8.25;2.55;;;19.80;76.10;;;;;;5130194;27;45342;-76
2022/07/16 06:51:34;;;;;;;5.05;2.42;;;19.80;76.40;;;;;;5129963;27;46297;-76
2022/07/16 06:54:01;;;;;;;8.20;2.20;;;19.80;76.50;;;;;;5130007;27;45249;-76
2022/07/16 06:56:29;;;;;;;4.60;2.70;;;19.90;78.20;;;;;;5139656;27;45250;-76
2022/07/16 06:58:56;;;;;;;4.47;2.90;;;19.80;78.00;;;;;;5150849;27;45553;-76
2022/07/16 07:01:23;;;;;;;3.63;2.38;;;19.80;78.10;;;;;;5150277;27;46303;-77
2022/07/16 07:03:50;;;;;;;5.80;2.97;;;19.80;78.10;;;;;;5136901;27;45381;-76
2022/07/16 07:06:17;;;;;;;4.72;2.75;;;19.70;79.10;;;;;;5148929;27;45543;-77
2022/07/16 07:08:44;;;;;;;10.27;2.88;;;19.70;78.90;;;;;;5150761;27;45245;-76
2022/07/16 07:11:10;;;;;;;6.10;2.25;;;19.80;79.20;;;;;;5150537;27;46967;-77
2022/07/16 07:13:39;;;;;;;4.68;2.33;;;20.00;80.40;;;;;;5142500;27;45393;-77
2022/07/16 07:16:06;;;;;;;8.02;2.90;;;20.20;78.40;;;;;;5130079;27;45266;-76
2022/07/16 07:18:33;;;;;;;7.00;2.83;;;20.20;80.70;;;;;;5129929;27;45501;-76
2022/07/16 07:21:00;;;;;;;5.20;2.22;;;20.20;80.80;;;;;;5129476;27;45476;-76
2022/07/16 07:23:34;;;;;;;8.90;3.53;;;20.20;79.60;;;;;;5129440;27;45307;-77
2022/07/16 07:26:00;;;;;;;5.57;3.50;;;20.10;81.60;;;;;;5129522;27;45133;-77
2022/07/16 07:28:28;;;;;;;7.20;3.63;;;19.90;84.00;;;;;;5129809;27;45445;-80
2022/07/16 07:30:57;;;;;;;11.10;3.72;;;19.70;85.70;;;;;;5129669;27;47868;-80
2022/07/16 07:33:24;;;;;;;10.02;3.75;;;19.70;85.10;;;;;;5129101;27;45138;-80
2022/07/16 07:35:51;;;;;;;12.75;3.60;;;19.50;86.70;;;;;;5129747;27;45237;-79
2022/07/16 07:38:19;;;;;;;8.45;3.30;;;19.80;88.20;;;;;;5129262;27;45411;-79
2022/07/16 07:40:45;;;;;;;8.77;3.53;;;19.90;86.30;;;;;;5129127;27;46766;-78
2022/07/16 07:43:12;;;;;;;5.05;3.10;;;20.30;88.70;;;;;;5129155;27;45670;-78
2022/07/16 07:45:40;;;;;;;5.88;2.92;;;20.30;90.00;;;;;;5129576;27;45272;-78
2022/07/16 07:48:08;;;;;;;9.05;3.30;;;19.80;87.70;;;;;;5129202;27;45490;-79
2022/07/16 07:50:35;;;;;;;7.78;3.42;;;19.60;89.20;;;;;;5129229;27;47590;-79
2022/07/16 07:53:02;;;;;;;10.07;3.20;;;19.70;89.70;;;;;;5129195;27;45970;-79
2022/07/16 07:55:30;;;;;;;7.05;3.38;;;19.70;89.90;;;;;;5129458;27;45223;-79
2022/07/16 07:57:57;;;;;;;7.47;2.70;;;19.70;90.20;;;;;;5129894;27;45180;-78
2022/07/16 08:00:24;;;;;;;6.25;3.20;;;19.80;88.10;;;;;;5129205;27;47324;-77
2022/07/16 08:06:14;;;;;;;5.85;2.50;;;19.70;88.00;;;;;;5139002;27;45235;-77
2022/07/16 08:08:41;;;;;;;29.67;3.38;;;19.80;87.80;;;;;;5150011;27;45149;-77
2022/07/16 08:11:08;;;;;;;7.80;2.03;;;19.60;89.40;;;;;;5149795;27;48482;-77
2022/07/16 08:16:57;;;;;;;4.80;1.90;;;19.80;87.00;;;;;;5146765;27;45178;-77
2022/07/16 08:19:24;;;;;;;3.88;2.00;;;19.50;88.20;;;;;;5149837;27;45080;-77
2022/07/16 08:21:53;;;;;;;4.60;1.73;;;19.60;87.40;;;;;;5149651;27;46237;-77
2022/07/16 08:27:41;;;;;;;4.43;1.17;;;19.90;83.30;;;;;;5146531;27;45206;-77
2022/07/16 08:30:09;;;;;;;3.45;1.25;;;19.90;80.50;;;;;;5149914;27;45182;-77
2022/07/16 08:32:36;;;;;;;3.17;1.05;;;20.00;79.40;;;;;;5149214;27;47517;-77
2022/07/16 08:35:03;;;;;;;3.13;1.00;;;20.00;78.70;;;;;;5149107;27;45304;-78
2022/07/16 08:37:35;;;;;;;1.25;0.70;;;20.00;76.30;;;;;;5149428;27;45086;-77
2022/07/16 08:40:04;;;;;;;4.43;1.02;;;20.00;75.10;;;;;;5141424;27;45403;-73
2022/07/16 08:42:33;;;;;;;4.68;1.15;;;19.60;76.20;;;;;;5140541;27;48014;-74
2022/07/16 08:45:00;;;;;;;4.88;1.08;;;19.50;76.60;;;;;;5143015;27;45558;-74
2022/07/16 08:47:28;;;;;;;3.38;0.65;;;19.80;73.10;;;;;;5141264;27;45422;-74
2022/07/16 08:49:55;;;;;;;1.73;0.75;;;19.80;73.80;;;;;;5138149;27;45254;-74
2022/07/16 08:52:26;;;;;;;4.38;0.73;;;19.70;70.90;;;;;;5142283;27;46250;-74
2022/07/16 08:54:55;;;;;;;2.58;1.00;;;19.70;70.60;;;;;;5140965;27;45445;-74
2022/07/16 08:57:22;;;;;;;2.15;0.50;;;19.50;71.00;;;;;;5137620;27;45457;-75
2022/07/16 08:59:50;;;;;;;4.50;0.80;;;19.50;68.50;;;;;;5148210;27;45285;-76
2022/07/16 09:02:18;;;;;;;3.35;0.70;;;19.50;66.70;;;;;;5148861;27;46368;-76
2022/07/16 09:04:46;;;;;;;4.32;0.70;;;19.60;66.30;;;;;;5148586;27;46090;-76
2022/07/16 09:07:13;;;;;;;1.85;0.70;;;19.90;67.70;;;;;;5148943;27;45462;-76
2022/07/16 09:10:03;;;;;;;1.77;0.70;;;20.10;65.90;;;;;;5148890;27;45326;-75
2022/07/16 09:12:39;;;;;;;1.58;0.50;;;20.20;64.90;;;;;;5148444;27;47293;-75
2022/07/16 09:15:27;;;;;;;1.25;0.60;;;20.00;64.20;;;;;;5140574;27;45332;-75
2022/07/16 09:18:17;;;;;;;5.63;0.70;;;20.20;64.80;;;;;;5148000;27;45348;-75
2022/07/16 09:21:23;;;;;;;1.80;0.70;;;20.00;66.60;;;;;;5148443;27;45211;-75
2022/07/16 09:23:50;;;;;;;1.10;0.40;;;19.70;67.00;;;;;;5148351;27;47584;-75
2022/07/16 09:26:33;;;;;;;3.17;0.70;;;19.80;68.00;;;;;;5147976;27;45170;-75
2022/07/16 09:29:04;;;;;;;3.03;0.80;;;19.90;67.50;;;;;;5148042;27;45258;-75
2022/07/16 09:31:39;;;;;;;3.50;0.82;;;19.70;67.90;;;;;;5144747;27;45213;-74
2022/07/16 09:34:08;;;;;;;1.92;0.90;;;19.80;68.30;;;;;;5126099;27;46302;-75
2022/07/16 09:36:36;;;;;;;7.43;1.00;;;20.00;67.60;;;;;;5134816;27;46167;-75
2022/07/16 09:39:06;;;;;;;1.55;0.63;;;20.10;65.10;;;;;;5132269;27;45299;-75
2022/07/16 09:41:47;;;;;;;2.75;0.77;;;20.10;64.20;;;;;;5127643;27;45258;-74
2022/07/16 09:44:15;;;;;;;1.55;0.82;;;20.10;65.80;;;;;;5146936;27;49172;-74
2022/07/16 09:46:58;;;;;;;1.33;0.60;;;20.10;65.70;;;;;;5146674;27;46177;-74
2022/07/16 09:49:25;;;;;;;3.08;0.70;;;20.30;62.00;;;;;;5146827;27;45374;-74
2022/07/16 09:51:52;;;;;;;3.20;1.00;;;20.30;63.60;;;;;;5129395;27;45606;-75
2022/07/16 09:54:27;;;;;;;1.33;0.73;;;20.40;60.20;;;;;;5139980;27;47300;-74
2022/07/16 09:57:07;;;;;;;1.65;0.75;;;20.10;60.60;;;;;;5132040;27;45423;-74
2022/07/16 09:59:34;;;;;;;2.63;0.73;;;20.20;63.10;;;;;;5150057;27;45325;-74
2022/07/16 10:02:03;;;;;;;3.05;0.90;;;20.40;62.00;;;;;;5150685;27;45249;-74
2022/07/16 10:04:30;;;;;;;1.95;0.73;;;20.50;65.70;;;;;;5150414;27;46339;-74
2022/07/16 10:06:57;;;;;;;1.38;0.70;;;20.60;65.70;;;;;;5150539;27;45205;-74
2022/07/16 10:09:25;;;;;;;1.00;0.70;;;20.60;64.90;;;;;;5148285;27;45314;-74
2022/07/16 10:11:53;;;;;;;2.17;0.80;;;20.70;69.20;;;;;;5150401;27;45350;-74
2022/07/16 10:14:22;;;;;;;2.20;0.75;;;20.70;66.70;;;;;;5145544;27;46767;-74
2022/07/16 10:16:49;;;;;;;3.53;0.80;;;20.70;65.30;;;;;;5134699;27;45473;-74
2022/07/16 10:19:17;;;;;;;1.70;0.77;;;20.80;65.50;;;;;;5150304;27;45393;-75
2022/07/16 10:22:15;;;;;;;11.38;1.20;;;20.90;65.80;;;;;;5150172;27;45287;-74
2022/07/16 10:24:47;;;;;;;10.40;1.30;;;20.90;64.00;;;;;;5147587;27;47650;-75
2022/07/16 10:27:20;;;;;;;3.08;0.85;;;20.80;64.40;;;;;;5147802;27;45361;-75
2022/07/16 10:29:48;;;;;;;2.03;0.88;;;20.80;66.50;;;;;;5147971;27;45345;-74
2022/07/16 10:32:30;;;;;;;2.30;0.80;;;20.80;65.00;;;;;;5150910;27;45484;-75
2022/07/16 10:35:00;;;;;;;2.95;0.60;;;20.80;63.80;;;;;;5140187;27;46375;-74
2022/07/16 10:37:30;;;;;;;2.50;0.80;;;20.70;65.10;;;;;;5129293;27;45289;-74
2022/07/16 10:40:06;;;;;;;3.95;1.00;;;20.70;67.40;;;;;;5137726;27;45394;-74
2022/07/16 10:42:34;;;;;;;1.88;0.68;;;20.70;63.90;;;;;;5140302;27;45368;-74
2022/07/16 10:45:02;;;;;;;1.63;0.80;;;20.80;66.10;;;;;;5130072;27;45462;-74
2022/07/16 10:47:44;;;;;;;3.30;0.68;;;21.00;66.90;;;;;;5144792;27;45345;-75
2022/07/16 10:50:19;;;;;;;3.95;0.70;;;21.10;60.90;;;;;;5150610;27;45397;-75
2022/07/16 10:52:48;;;;;;;2.58;0.73;;;21.20;60.40;;;;;;5145357;27;45670;-74
2022/07/16 10:55:34;;;;;;;5.90;0.82;;;21.30;59.60;;;;;;5131490;27;46222;-75
2022/07/16 10:58:02;;;;;;;1.75;0.70;;;21.30;58.40;;;;;;5147155;27;45241;-75
2022/07/16 11:00:30;;;;;;;2.53;0.73;;;21.30;57.90;;;;;;5136776;27;45270;-76
2022/07/16 11:03:00;;;;;;;3.75;1.00;;;21.30;58.70;;;;;;5150908;27;45484;-76
2022/07/16 11:05:29;;;;;;;2.05;0.90;;;21.40;61.70;;;;;;5150563;27;47554;-75
2022/07/16 11:08:08;;;;;;;1.65;0.85;;;21.40;59.20;;;;;;5149787;27;45230;-74
2022/07/16 11:10:36;;;;;;;4.90;0.93;;;21.40;63.90;;;;;;5149334;27;45269;-74
2022/07/16 11:13:03;;;;;;;7.93;0.80;;;21.10;62.60;;;;;;5137631;27;45268;-74
2022/07/16 11:15:31;;;;;;;2.88;1.00;;;21.20;67.50;;;;;;5138284;27;47306;-75
2022/07/16 11:17:58;;;;;;;3.95;0.73;;;21.20;62.50;;;;;;5149304;27;45524;-75
2022/07/16 11:20:36;;;;;;;3.77;0.93;;;21.30;63.20;;;;;;5142436;27;45385;-75
2022/07/16 11:23:08;;;;;;;1.88;0.77;;;21.30;67.50;;;;;;5145195;27;45583;-76
2022/07/16 11:25:35;;;;;;;13.30;1.40;;;21.20;67.10;;;;;;5143101;27;45323;-75
2022/07/16 11:28:03;;;;;;;3.83;0.98;;;21.20;61.00;;;;;;5148988;27;45238;-75
2022/07/16 11:30:31;;;;;;;2.78;1.25;;;21.30;60.50;;;;;;5149298;27;45346;-75
2022/07/16 11:32:58;;;;;;;13.07;1.30;;;21.30;61.30;;;;;;5138958;27;45479;-75
2022/07/16 11:35:25;;;;;;;5.47;1.00;;;21.30;58.90;;;;;;5139791;27;45737;-76
2022/07/16 11:37:54;;;;;;;1.42;0.68;;;21.40;60.00;;;;;;5146934;27;45336;-75
2022/07/16 11:40:21;;;;;;;2.90;0.80;;;21.30;61.90;;;;;;5149538;27;45343;-75
2022/07/16 11:42:59;;;;;;;2.30;0.70;;;21.30;62.10;;;;;;5149169;27;45317;-75
2022/07/16 11:45:27;;;;;;;9.15;1.15;;;21.10;66.90;;;;;;5143906;27;47727;-75
2022/07/16 11:50:52;;;;;;;1.58;0.70;;;21.20;61.40;;;;;;5143516;27;45258;-74
2022/07/16 11:53:28;;;;;;;5.13;1.00;;;21.40;62.20;;;;;;5123410;27;45292;-75
2022/07/16 11:55:55;;;;;;;3.38;1.08;;;21.30;62.60;;;;;;5130651;27;45458;-74
2022/07/16 11:58:22;;;;;;;2.75;0.80;;;21.30;60.80;;;;;;5124676;27;45489;-74
2022/07/16 12:00:49;;;;;;;3.17;0.90;;;21.40;59.50;;;;;;5120886;27;45418;-75
2022/07/16 12:03:17;;;;;;;5.38;0.90;;;21.50;59.40;;;;;;5124979;27;45281;-74
2022/07/16 12:05:44;;;;;;;10.38;1.10;;;21.30;62.20;;;;;;5123616;27;45364;-76
2022/07/16 12:08:13;;;;;;;9.50;1.33;;;21.50;59.70;;;;;;5124177;27;45241;-76
2022/07/16 12:10:40;;;;;;;2.40;0.65;;;21.50;60.80;;;;;;5123848;27;46541;-76
2022/07/16 12:13:09;;;;;;;3.47;0.70;;;21.40;59.50;;;;;;5123973;27;45084;-76
2022/07/16 12:15:51;;;;;;;3.83;0.80;;;21.40;58.10;;;;;;5127068;27;45255;-76
2022/07/16 12:18:19;;;;;;;5.55;0.90;;;21.40;56.40;;;;;;5124038;27;45626;-76
2022/07/16 12:24:44;;;;;;;2.53;0.68;;;21.50;56.60;;;;;;5120686;27;45301;-78
2022/07/16 12:27:11;;;;;;;2.28;0.95;;;21.50;55.40;;;;;;5123584;27;45171;-77
2022/07/16 12:29:39;;;;;;;4.28;0.50;;;21.30;61.60;;;;;;5123807;27;45133;-76
2022/07/16 12:32:07;;;;;;;3.88;1.10;;;21.20;56.30;;;;;;5123316;27;48267;-77
2022/07/16 12:34:43;;;;;;;2.25;0.90;;;21.20;63.30;;;;;;5123643;27;45293;-77
2022/07/16 12:37:13;;;;;;;4.15;0.63;;;21.10;55.90;;;;;;5123793;27;45214;-77
2022/07/16 12:39:41;;;;;;;2.33;0.80;;;21.30;60.80;;;;;;5123833;27;45574;-77
2022/07/16 12:42:09;;;;;;;10.50;0.73;;;21.50;57.80;;;;;;5123481;27;47889;-78
2022/07/16 12:44:36;;;;;;;9.70;0.93;;;21.50;56.20;;;;;;5123569;27;46704;-77
2022/07/16 12:47:03;;;;;;;3.35;1.08;;;21.60;55.40;;;;;;5123693;27;45216;-77
2022/07/16 12:49:31;;;;;;;2.75;0.90;;;21.80;55.10;;;;;;5123174;27;45574;-77
2022/07/16 12:52:00;;;;;;;7.25;0.98;;;21.60;55.50;;;;;;5123111;27;48964;-77
2022/07/16 12:58:47;;;;;;;10.00;1.20;;;21.70;54.60;;;;;;5123487;27;46331;-76
2022/07/16 13:00:01;;;;;;;2.83;1.00;;;21.80;52.80;;;;;;5094872;27;45369;-76
2022/07/16 13:02:28;;;;;;;1.80;0.60;;;21.80;65.40;;;;;;5108943;27;46851;-76
2022/07/16 13:04:55;;;;;;;7.80;1.17;;;21.60;57.60;;;;;;5109465;27;45259;-76
2022/07/16 13:07:22;;;;;;;1.60;0.70;;;21.60;55.10;;;;;;5113763;27;45125;-76
2022/07/16 13:09:50;;;;;;;5.03;1.10;;;21.60;54.20;;;;;;5109912;27;45094;-76
2022/07/16 13:12:19;;;;;;;2.35;0.98;;;21.60;57.10;;;;;;5109294;27;47668;-76
2022/07/16 13:14:46;;;;;;;5.03;1.30;;;21.50;60.20;;;;;;5109217;27;45397;-76
2022/07/16 13:17:13;;;;;;;3.00;0.95;;;21.40;54.80;;;;;;5109128;27;45223;-76
2022/07/16 13:19:39;;;;;;;7.97;0.90;;;21.60;53.20;;;;;;5109355;27;45517;-76
2022/07/16 13:22:08;;;;;;;4.57;0.80;;;21.70;53.70;;;;;;5109073;27;45384;-76
2022/07/16 13:24:35;;;;;;;9.18;0.90;;;21.70;53.60;;;;;;5108846;27;45399;-76